Time;durP1;ratioP1;P1;durP2;ratioP2;P2;SDS_P1;SDS_P2;PMS_P1;PMS_P2;Temp;Humidity;BMP_temperature;BMP_pressure;BME280_temperature;BME280_humidity;BME280_pressure;Samples;Min_cycle;Max_cycle;Signal;HPM_P1;HPM_P2
2020/12/31 00:01:27;;;;;;;4.93;4.50;;;;;;;3.36;95.99;95499.66;5070914;28;20165;-59
2020/12/31 00:03:54;;;;;;;5.67;4.90;;;;;;;3.47;95.18;95505.06;5071141;28;20424;-60
2020/12/31 00:06:19;;;;;;;4.23;3.83;;;;;;;3.32;94.93;95503.66;5071125;28;20426;-58
2020/12/31 00:08:45;;;;;;;4.93;4.10;;;;;;;3.36;95.01;95504.88;5070769;28;20438;-60
2020/12/31 00:11:11;;;;;;;5.03;4.17;;;;;;;3.30;95.31;95498.69;5071217;28;20229;-58
2020/12/31 00:13:37;;;;;;;5.03;4.30;;;;;;;3.29;96.00;95498.88;5069823;28;20424;-60
2020/12/31 00:16:03;;;;;;;4.90;4.00;;;;;;;3.34;95.50;95502.47;5071247;28;20262;-59
2020/12/31 00:18:28;;;;;;;3.97;3.57;;;;;;;3.37;95.16;95493.50;5052038;28;20431;-58
2020/12/31 00:20:54;;;;;;;4.73;4.20;;;;;;;3.49;94.77;95495.25;5070552;28;20432;-61
2020/12/31 00:23:19;;;;;;;4.20;3.70;;;;;;;3.34;95.04;95488.69;5070652;28;20180;-59
2020/12/31 00:25:49;;;;;;;4.57;4.17;;;;;;;3.52;94.94;95478.47;5070265;28;20583;-59
2020/12/31 00:28:17;;;;;;;3.23;3.00;;;;;;;3.37;94.25;95483.13;5070531;28;20241;-59
2020/12/31 00:30:43;;;;;;;4.70;4.20;;;;;;;3.32;94.79;95469.91;5070153;28;20972;-58
2020/12/31 00:33:10;;;;;;;3.53;3.33;;;;;;;3.44;94.91;95474.31;5070380;28;20434;-58
2020/12/31 00:35:35;;;;;;;3.77;3.33;;;;;;;3.74;93.33;95472.00;5070268;28;20417;-58
2020/12/31 00:38:00;;;;;;;4.43;4.10;;;;;;;3.63;93.32;95465.66;5070360;28;20414;-61
2020/12/31 00:40:26;;;;;;;3.77;3.47;;;;;;;3.79;92.25;95467.81;5070348;28;20279;-58
2020/12/31 00:42:51;;;;;;;3.80;3.50;;;;;;;3.88;91.54;95463.97;5070686;28;20172;-58
2020/12/31 00:45:16;;;;;;;3.70;3.40;;;;;;;3.70;91.08;95465.63;5070651;28;20209;-59
2020/12/31 00:47:42;;;;;;;3.63;3.33;;;;;;;3.45;92.92;95475.91;5069443;28;20178;-58
2020/12/31 00:50:07;;;;;;;3.30;3.10;;;;;;;3.57;93.09;95465.69;5070405;28;20207;-59
2020/12/31 00:52:32;;;;;;;3.03;2.83;;;;;;;3.15;93.61;95467.75;5070297;28;20231;-57
2020/12/31 00:54:58;;;;;;;3.23;2.67;;;;;;;3.22;93.29;95459.97;5070134;28;20183;-61
2020/12/31 00:57:23;;;;;;;4.03;3.33;;;;;;;3.55;92.21;95458.09;5070026;28;20172;-61
2020/12/31 00:59:48;;;;;;;3.77;3.47;;;;;;;3.68;90.61;95465.84;5069095;28;21033;-58
2020/12/31 01:02:14;;;;;;;4.20;3.90;;;;;;;3.77;90.85;95469.00;5070418;28;20171;-59
2020/12/31 01:04:39;;;;;;;3.70;3.50;;;;;;;3.62;90.54;95461.47;5067637;28;20698;-60
2020/12/31 01:07:05;;;;;;;3.40;3.10;;;;;;;3.54;91.01;95468.69;5073246;28;20199;-58
2020/12/31 01:09:30;;;;;;;3.47;3.07;;;;;;;3.74;90.50;95472.81;5074053;28;20194;-61
2020/12/31 01:11:56;;;;;;;5.53;3.10;;;;;;;3.82;89.32;95459.59;5073567;28;20205;-61
2020/12/31 01:14:22;;;;;;;4.50;3.87;;;;;;;3.76;90.02;95459.63;5072780;28;20181;-57
2020/12/31 01:16:49;;;;;;;4.20;3.80;;;;;;;3.67;89.98;95466.84;5092237;28;20225;-57
2020/12/31 01:19:14;;;;;;;4.10;3.80;;;;;;;3.68;90.71;95465.84;5087796;28;20498;-61
2020/12/31 01:21:44;;;;;;;4.77;3.40;;;;;;;3.69;90.13;95471.84;5073381;28;20443;-58
2020/12/31 01:24:09;;;;;;;3.60;3.30;;;;;;;3.31;91.44;95476.94;5073495;28;20194;-61
2020/12/31 01:26:35;;;;;;;4.37;3.93;;;;;;;3.34;92.24;95468.72;5072567;28;20449;-57
2020/12/31 01:29:02;;;;;;;4.20;3.83;;;;;;;3.53;91.50;95469.69;5073412;28;20264;-61
2020/12/31 01:31:27;;;;;;;4.00;3.63;;;;;;;3.33;92.73;95472.34;5073410;28;20887;-57
2020/12/31 01:33:53;;;;;;;4.23;3.80;;;;;;;3.33;92.50;95466.34;5072578;28;20455;-61
2020/12/31 01:36:18;;;;;;;6.13;4.53;;;;;;;3.34;93.05;95465.31;5072546;28;20630;-60
2020/12/31 01:38:45;;;;;;;6.10;5.50;;;;;;;3.24;93.34;95460.56;5073193;28;20211;-60
2020/12/31 01:41:10;;;;;;;3.90;3.47;;;;;;;3.03;94.01;95458.19;5072651;28;20194;-61
2020/12/31 01:43:35;;;;;;;5.27;4.63;;;;;;;3.14;93.85;95458.38;5073699;28;20417;-61
2020/12/31 01:46:01;;;;;;;4.70;4.30;;;;;;;3.29;93.65;95458.16;5073423;28;20570;-57
2020/12/31 01:48:27;;;;;;;6.53;4.90;;;;;;;3.22;93.00;95456.56;5073016;28;20173;-57
2020/12/31 01:50:53;;;;;;;4.90;4.30;;;;;;;3.12;92.95;95457.00;5072713;28;20211;-58
2020/12/31 01:53:20;;;;;;;5.30;4.80;;;;;;;3.15;93.25;95449.59;5073161;28;20403;-61
2020/12/31 01:55:46;;;;;;;4.97;4.50;;;;;;;3.32;92.55;95452.56;5072905;28;20420;-61
2020/12/31 01:58:12;;;;;;;6.67;5.13;;;;;;;3.49;92.02;95451.13;5072903;28;20494;-61
2020/12/31 02:00:38;;;;;;;6.23;3.97;;;;;;;3.22;91.49;95447.00;5072995;28;20521;-56
2020/12/31 02:03:03;;;;;;;6.30;4.97;;;;;;;3.21;92.19;95452.41;5073265;28;20408;-57
2020/12/31 02:05:29;;;;;;;4.97;4.47;;;;;;;3.21;91.31;95453.19;5072786;28;20294;-61
2020/12/31 02:07:54;;;;;;;5.17;4.07;;;;;;;3.24;90.39;95442.41;5072067;28;20177;-61
2020/12/31 02:10:20;;;;;;;4.97;4.47;;;;;;;3.48;90.03;95436.53;5073005;28;20202;-57
2020/12/31 02:12:45;;;;;;;4.87;4.40;;;;;;;3.46;88.63;95441.13;5072786;28;20544;-61
2020/12/31 02:15:17;;;;;;;4.87;4.40;;;;;;;3.54;88.65;95456.50;5073190;28;20192;-61
2020/12/31 02:17:44;;;;;;;6.50;4.20;;;;;;;3.65;87.54;95429.91;5072639;28;20529;-56
2020/12/31 02:20:12;;;;;;;3.63;3.33;;;;;;;3.60;87.02;95427.13;5072500;28;20421;-58
2020/12/31 02:22:38;;;;;;;6.00;4.57;;;;;;;3.33;87.35;95425.63;5072721;28;20514;-61
2020/12/31 02:25:03;;;;;;;4.70;4.20;;;;;;;3.49;87.13;95434.75;5072967;28;20487;-61
2020/12/31 02:27:28;;;;;;;5.87;4.93;;;;;;;3.48;86.31;95436.53;5072593;28;20355;-61
2020/12/31 02:29:54;;;;;;;5.00;3.80;;;;;;;3.40;86.72;95438.56;5072608;28;20205;-57
2020/12/31 02:32:19;;;;;;;4.47;4.03;;;;;;;3.46;86.57;95437.75;5073143;28;20263;-61
2020/12/31 02:34:45;;;;;;;4.80;3.87;;;;;;;3.41;86.73;95440.16;5072257;28;20175;-58
2020/12/31 02:37:10;;;;;;;4.63;4.23;;;;;;;3.34;86.54;95432.41;5072494;28;20175;-57
2020/12/31 02:39:36;;;;;;;4.30;3.90;;;;;;;3.44;86.37;95426.78;5054244;28;20188;-61
2020/12/31 02:42:01;;;;;;;5.00;4.60;;;;;;;3.55;85.71;95436.53;5072797;28;20171;-57
2020/12/31 02:44:27;;;;;;;4.83;4.40;;;;;;;3.58;85.73;95421.34;5074100;28;20172;-56
2020/12/31 02:46:52;;;;;;;5.40;4.83;;;;;;;3.51;85.23;95423.16;5075692;28;20183;-57
2020/12/31 02:49:17;;;;;;;5.30;3.70;;;;;;;3.54;84.30;95425.34;5076191;28;20198;-61
2020/12/31 02:51:45;;;;;;;4.63;4.20;;;;;;;3.71;84.71;95418.69;5076282;28;20196;-61
2020/12/31 02:54:10;;;;;;;4.97;4.50;;;;;;;3.93;83.44;95419.97;5076374;28;20165;-61
2020/12/31 02:56:36;;;;;;;5.70;5.00;;;;;;;4.00;83.59;95417.34;5075961;28;20412;-61
2020/12/31 02:59:01;;;;;;;4.73;4.33;;;;;;;4.10;83.13;95415.09;5076257;28;20166;-56
2020/12/31 03:01:26;;;;;;;6.20;4.83;;;;;;;4.15;82.62;95407.47;5076041;28;20178;-57
2020/12/31 03:03:52;;;;;;;5.33;4.83;;;;;;;4.27;82.33;95408.41;5075869;28;20181;-58
2020/12/31 03:06:18;;;;;;;6.37;4.33;;;;;;;4.42;81.82;95408.09;5075864;28;20174;-58
2020/12/31 03:08:43;;;;;;;6.10;5.00;;;;;;;4.48;81.92;95409.84;5076020;28;20222;-60
2020/12/31 03:11:20;;;;;;;6.07;4.93;;;;;;;4.49;81.87;95408.84;5075732;28;20211;-62
2020/12/31 03:13:46;;;;;;;6.80;4.33;;;;;;;4.62;80.95;95412.13;5076175;28;20176;-57
2020/12/31 03:16:11;;;;;;;5.17;4.70;;;;;;;4.66;80.64;95409.91;5075403;28;20783;-61
2020/12/31 03:18:37;;;;;;;4.93;4.20;;;;;;;4.63;80.76;95398.13;5075475;28;20507;-61
2020/12/31 03:21:03;;;;;;;5.00;4.50;;;;;;;4.62;80.36;95396.53;5075254;28;20189;-57
2020/12/31 03:23:28;;;;;;;5.70;5.10;;;;;;;4.64;80.69;95391.91;5075803;28;20184;-57
2020/12/31 03:25:54;;;;;;;5.37;4.53;;;;;;;4.58;80.01;95392.78;5075691;28;20399;-57
2020/12/31 03:28:19;;;;;;;5.20;4.50;;;;;;;4.62;80.22;95398.34;5075292;28;20265;-61
2020/12/31 03:30:45;;;;;;;4.83;4.33;;;;;;;4.55;79.68;95402.81;5075449;28;20200;-61
2020/12/31 03:33:12;;;;;;;5.00;4.50;;;;;;;4.56;79.64;95397.38;5075817;28;20177;-57
2020/12/31 03:35:42;;;;;;;6.63;4.67;;;;;;;4.53;79.63;95397.03;5075238;28;20759;-57
2020/12/31 03:38:08;;;;;;;5.43;4.93;;;;;;;4.37;80.01;95397.50;5074730;28;20414;-57
2020/12/31 03:40:34;;;;;;;5.13;4.63;;;;;;;4.31;80.79;95398.38;5075117;28;20414;-58
2020/12/31 03:42:59;;;;;;;3.90;3.60;;;;;;;4.31;79.67;95401.78;5075755;28;20408;-61
2020/12/31 03:45:25;;;;;;;5.53;4.47;;;;;;;4.31;80.59;95390.56;5075172;28;20196;-58
2020/12/31 03:47:50;;;;;;;4.53;3.77;;;;;;;4.29;80.09;95395.19;5074744;28;20176;-58
2020/12/31 03:50:15;;;;;;;5.63;4.20;;;;;;;4.35;79.45;95381.34;5075204;28;20729;-61
2020/12/31 03:52:41;;;;;;;3.90;3.60;;;;;;;4.39;79.23;95378.09;5075375;28;20178;-61
2020/12/31 03:55:06;;;;;;;4.00;3.60;;;;;;;4.44;79.33;95382.69;5075222;28;20217;-57
2020/12/31 03:57:31;;;;;;;4.27;3.87;;;;;;;4.31;79.30;95372.38;5073460;28;20194;-61
2020/12/31 03:59:57;;;;;;;3.80;3.50;;;;;;;4.16;78.71;95363.09;5074730;28;20224;-61
2020/12/31 04:02:22;;;;;;;4.00;3.20;;;;;;;3.93;79.40;95357.63;5075206;28;20205;-57
2020/12/31 04:04:47;;;;;;;9.00;3.90;;;;;;;3.89;79.54;95358.25;5074761;28;20260;-61
2020/12/31 04:07:13;;;;;;;3.37;3.10;;;;;;;3.95;79.26;95360.03;5074761;28;20186;-57
2020/12/31 04:09:38;;;;;;;3.43;3.13;;;;;;;3.88;78.90;95352.25;5074984;28;20703;-61
2020/12/31 04:12:04;;;;;;;3.77;3.40;;;;;;;3.79;78.81;95337.94;5074645;28;20199;-61
2020/12/31 04:14:29;;;;;;;3.60;3.30;;;;;;;3.80;79.42;95347.34;5074510;28;20186;-61
2020/12/31 04:16:55;;;;;;;3.57;3.30;;;;;;;3.86;79.14;95349.06;5074410;28;20250;-62
2020/12/31 04:19:20;;;;;;;3.70;3.30;;;;;;;3.94;78.76;95341.03;5074696;28;20197;-61
2020/12/31 04:21:47;;;;;;;3.73;3.40;;;;;;;3.33;79.62;95339.97;5074515;28;20640;-61
2020/12/31 04:24:13;;;;;;;3.17;2.87;;;;;;;3.32;79.74;95337.56;5074720;28;20188;-57
2020/12/31 04:26:38;;;;;;;3.43;3.13;;;;;;;3.49;79.23;95333.50;5073880;28;20424;-57
2020/12/31 04:29:04;;;;;;;2.90;2.70;;;;;;;3.72;78.71;95329.38;5074393;28;20420;-57
2020/12/31 04:31:29;;;;;;;3.13;2.90;;;;;;;3.65;78.03;95327.81;5074576;28;20280;-57
2020/12/31 04:33:54;;;;;;;4.20;3.30;;;;;;;3.81;77.53;95322.94;5074028;28;20294;-57
2020/12/31 04:36:20;;;;;;;3.73;3.43;;;;;;;3.78;77.01;95320.75;5073905;28;20185;-59
2020/12/31 04:38:45;;;;;;;4.27;3.73;;;;;;;3.71;77.27;95330.41;5074073;28;20168;-57
2020/12/31 04:41:13;;;;;;;3.50;3.30;;;;;;;3.70;76.69;95330.59;5073690;28;20264;-57
2020/12/31 04:43:38;;;;;;;3.10;2.80;;;;;;;3.61;77.70;95324.84;5074521;28;20180;-56
2020/12/31 04:46:09;;;;;;;3.33;3.03;;;;;;;3.62;77.98;95326.47;5074360;28;20398;-57
2020/12/31 04:48:42;;;;;;;3.20;2.93;;;;;;;3.54;78.06;95326.69;5073673;28;20168;-58
2020/12/31 04:51:10;;;;;;;3.50;3.20;;;;;;;3.47;78.63;95325.94;5074242;28;20987;-61
2020/12/31 04:53:37;;;;;;;2.90;2.70;;;;;;;3.34;78.61;95325.19;5073546;28;20414;-61
2020/12/31 04:56:03;;;;;;;3.00;2.70;;;;;;;3.46;78.17;95321.72;5056117;28;20768;-57
2020/12/31 04:58:29;;;;;;;3.20;2.90;;;;;;;3.64;78.69;95328.84;5073213;28;20421;-61
2020/12/31 05:00:54;;;;;;;2.80;2.60;;;;;;;3.77;78.32;95318.34;5073879;28;20423;-61
2020/12/31 05:03:19;;;;;;;2.80;2.60;;;;;;;3.80;77.64;95312.75;5074180;28;20629;-61
2020/12/31 05:05:47;;;;;;;4.03;3.73;;;;;;;3.81;78.24;95309.94;5074039;28;20191;-61
2020/12/31 05:08:17;;;;;;;4.20;3.60;;;;;;;3.84;78.20;95301.72;5072417;28;21839;-61
2020/12/31 05:10:52;;;;;;;3.60;3.30;;;;;;;3.90;78.33;95307.88;5073212;28;20988;-61
2020/12/31 05:13:17;;;;;;;5.23;3.50;;;;;;;3.92;78.13;95300.69;5060359;28;20414;-57
2020/12/31 05:15:43;;;;;;;5.17;3.07;;;;;;;3.91;77.88;95304.28;5073075;28;20490;-57
2020/12/31 05:18:24;;;;;;;4.47;3.20;;;;;;;3.99;77.89;95301.41;5073207;28;20186;-57
2020/12/31 05:21:01;;;;;;;3.07;2.73;;;;;;;3.97;77.42;95306.84;5073445;28;20184;-61
2020/12/31 05:23:29;;;;;;;4.57;3.00;;;;;;;3.92;78.21;95304.09;5056020;28;20906;-58
2020/12/31 05:25:55;;;;;;;3.07;2.63;;;;;;;3.96;77.50;95301.84;5073059;28;20426;-57
2020/12/31 05:28:36;;;;;;;3.23;3.03;;;;;;;3.92;77.52;95305.88;5072952;28;20423;-57
2020/12/31 05:31:07;;;;;;;3.30;2.93;;;;;;;3.70;77.94;95297.63;5055473;28;20508;-61
2020/12/31 05:33:39;;;;;;;3.50;3.20;;;;;;;3.68;78.55;95306.63;5073250;28;20421;-57
2020/12/31 05:36:25;;;;;;;4.30;3.90;;;;;;;3.68;78.08;95302.22;5073216;28;20914;-61
2020/12/31 05:38:56;;;;;;;3.23;2.93;;;;;;;3.78;77.68;95297.38;5073243;28;20474;-58
2020/12/31 05:41:25;;;;;;;3.13;2.83;;;;;;;3.82;77.60;95290.75;5073013;28;20418;-57
2020/12/31 05:43:55;;;;;;;3.13;2.83;;;;;;;3.84;77.72;95295.75;5073596;28;20406;-57
2020/12/31 05:46:21;;;;;;;2.97;2.67;;;;;;;3.83;77.72;95294.94;5073081;28;20406;-61
2020/12/31 05:49:00;;;;;;;2.73;2.53;;;;;;;3.80;77.96;95294.56;5073141;28;20514;-61
2020/12/31 05:51:33;;;;;;;3.63;3.10;;;;;;;3.84;77.68;95285.38;5073421;28;20532;-57
2020/12/31 05:54:13;;;;;;;3.63;3.13;;;;;;;3.83;77.00;95281.97;5073136;28;20468;-57
2020/12/31 05:56:41;;;;;;;3.33;3.00;;;;;;;3.76;76.63;95280.41;5072925;28;20422;-57
2020/12/31 05:59:19;;;;;;;3.60;3.30;;;;;;;3.82;76.95;95293.34;5072822;28;20427;-58
2020/12/31 06:01:55;;;;;;;3.20;2.90;;;;;;;3.69;76.59;95283.06;5073386;28;20426;-58
2020/12/31 06:04:30;;;;;;;3.40;3.00;;;;;;;3.17;77.31;95285.16;5073501;28;20402;-57
2020/12/31 06:07:00;;;;;;;2.90;2.70;;;;;;;2.91;78.09;95271.28;5073018;28;20731;-61
2020/12/31 06:09:27;;;;;;;3.77;3.47;;;;;;;3.13;78.04;95282.16;5072930;28;20449;-58
2020/12/31 06:12:05;;;;;;;3.13;2.83;;;;;;;3.41;76.81;95274.81;5072670;28;20948;-60
2020/12/31 06:14:32;;;;;;;3.67;3.27;;;;;;;3.49;76.81;95276.38;5053192;28;20871;-58
2020/12/31 06:17:02;;;;;;;2.63;2.43;;;;;;;3.17;77.03;95271.16;5069980;28;20424;-57
2020/12/31 06:19:39;;;;;;;4.80;3.70;;;;;;;3.25;77.33;95274.50;5056911;28;20414;-56
2020/12/31 06:22:08;;;;;;;3.13;2.70;;;;;;;3.06;76.45;95274.41;5076871;28;20410;-61
2020/12/31 06:24:38;;;;;;;3.40;3.10;;;;;;;3.08;77.45;95275.00;5076537;28;20433;-57
2020/12/31 06:27:07;;;;;;;3.53;3.23;;;;;;;2.86;77.88;95281.44;5075664;28;20541;-61
2020/12/31 06:29:38;;;;;;;3.33;3.03;;;;;;;2.68;78.08;95272.75;5065802;28;20981;-56
2020/12/31 06:32:11;;;;;;;3.93;3.10;;;;;;;2.60;79.05;95278.16;5076802;28;20536;-61
2020/12/31 06:34:36;;;;;;;3.20;2.70;;;;;;;2.98;78.38;95274.63;5076560;28;20449;-61
2020/12/31 06:37:07;;;;;;;3.10;2.80;;;;;;;3.03;77.06;95268.81;5075802;28;20463;-59
2020/12/31 06:39:33;;;;;;;4.53;3.10;;;;;;;3.04;76.84;95268.59;5075959;28;20193;-57
2020/12/31 06:41:58;;;;;;;3.77;3.40;;;;;;;3.23;77.17;95273.91;5076603;28;20399;-60
2020/12/31 06:44:28;;;;;;;4.57;3.77;;;;;;;3.14;76.34;95274.16;5076688;28;20268;-61
2020/12/31 06:46:54;;;;;;;3.50;3.20;;;;;;;3.15;77.13;95273.16;5076022;28;20179;-58
2020/12/31 06:49:19;;;;;;;4.50;4.10;;;;;;;3.30;76.47;95272.13;5075903;28;20443;-57
2020/12/31 06:51:44;;;;;;;4.70;4.07;;;;;;;3.12;77.17;95265.78;5075589;28;20193;-61
2020/12/31 06:54:11;;;;;;;3.93;3.50;;;;;;;3.07;77.29;95267.41;5076420;28;20561;-61
2020/12/31 06:56:50;;;;;;;3.97;3.67;;;;;;;3.13;77.58;95257.00;5076042;28;20562;-62
2020/12/31 06:59:33;;;;;;;4.17;3.83;;;;;;;3.22;77.22;95261.97;5076300;28;20986;-61
2020/12/31 07:02:00;;;;;;;4.90;4.17;;;;;;;2.97;76.94;95265.25;5076392;28;20432;-57
2020/12/31 07:04:33;;;;;;;4.00;3.60;;;;;;;3.20;76.88;95254.38;5076069;28;20826;-57
2020/12/31 07:07:17;;;;;;;3.13;2.83;;;;;;;3.23;76.83;95260.94;5071909;28;20419;-57
2020/12/31 07:09:52;;;;;;;3.67;3.13;;;;;;;2.81;77.95;95249.34;5075986;28;20445;-61
2020/12/31 07:12:30;;;;;;;4.00;3.63;;;;;;;3.03;78.07;95245.47;5076205;28;20966;-57
2020/12/31 07:14:55;;;;;;;4.40;4.00;;;;;;;3.16;77.35;95258.41;5076193;28;20761;-61
2020/12/31 07:17:22;;;;;;;4.10;3.63;;;;;;;2.78;77.72;95250.56;5075676;28;20416;-57
2020/12/31 07:19:47;;;;;;;3.53;3.23;;;;;;;2.58;78.64;95251.63;5075136;28;20587;-61
2020/12/31 07:22:13;;;;;;;3.77;3.40;;;;;;;2.32;80.40;95249.09;5075799;28;20438;-58
2020/12/31 07:24:49;;;;;;;5.63;4.37;;;;;;;2.05;81.41;95256.09;5075685;28;20631;-57
2020/12/31 07:27:29;;;;;;;5.13;4.00;;;;;;;2.02;81.63;95252.13;5075239;28;20176;-57
2020/12/31 07:29:56;;;;;;;7.40;4.97;;;;;;;2.05;81.72;95256.09;5074550;28;20452;-57
2020/12/31 07:32:47;;;;;;;4.80;4.00;;;;;;;2.00;82.10;95250.72;5075223;28;20892;-56
2020/12/31 07:35:49;;;;;;;4.53;4.13;;;;;;;2.33;81.53;95243.72;5075593;28;20381;-61
2020/12/31 07:38:19;;;;;;;4.77;4.27;;;;;;;2.25;81.53;95253.50;5074604;28;20862;-61
2020/12/31 07:40:50;;;;;;;4.40;4.00;;;;;;;2.37;81.21;95249.28;5070297;28;20941;-61
2020/12/31 07:43:23;;;;;;;3.80;3.30;;;;;;;2.49;80.49;95237.28;5075635;28;20448;-61
2020/12/31 07:45:54;;;;;;;4.47;4.03;;;;;;;2.36;81.68;95243.31;5075935;28;20502;-61
2020/12/31 07:48:21;;;;;;;4.43;4.03;;;;;;;2.61;81.17;95246.06;5074822;28;20447;-57
2020/12/31 07:50:53;;;;;;;4.63;4.23;;;;;;;2.71;80.35;95246.41;5075142;28;20453;-57
2020/12/31 07:53:18;;;;;;;4.60;4.20;;;;;;;3.01;79.49;95242.28;5074937;28;20420;-57
2020/12/31 07:55:49;;;;;;;3.87;3.50;;;;;;;3.01;79.06;95242.28;5075362;28;20410;-57
2020/12/31 07:58:17;;;;;;;4.93;4.43;;;;;;;2.87;79.45;95251.13;5074924;28;20658;-61
2020/12/31 08:00:42;;;;;;;4.67;4.20;;;;;;;2.62;80.32;95237.25;5074843;28;20442;-57
2020/12/31 08:03:09;;;;;;;5.50;4.60;;;;;;;2.57;80.64;95234.50;5074864;28;20484;-61
2020/12/31 08:05:35;;;;;;;4.90;4.50;;;;;;;2.32;81.96;95241.34;5075099;28;20172;-62
2020/12/31 08:08:00;;;;;;;4.17;3.87;;;;;;;2.35;81.58;95235.75;5074592;28;20924;-61
2020/12/31 08:10:26;;;;;;;4.30;3.90;;;;;;;2.26;82.29;95239.53;5075097;28;20672;-57
2020/12/31 08:12:56;;;;;;;4.13;3.70;;;;;;;2.39;82.52;95239.53;5074510;28;20196;-61
2020/12/31 08:15:23;;;;;;;3.60;3.30;;;;;;;2.37;81.82;95239.72;5074392;28;20583;-57
2020/12/31 08:17:56;;;;;;;4.27;3.87;;;;;;;2.25;82.57;95236.16;5074426;28;20443;-61
2020/12/31 08:20:28;;;;;;;4.73;4.30;;;;;;;2.39;82.62;95231.75;5074862;28;20434;-61
2020/12/31 08:22:56;;;;;;;6.33;4.10;;;;;;;2.33;82.42;95238.53;5074586;28;20517;-56
2020/12/31 08:25:42;;;;;;;5.37;4.90;;;;;;;2.31;82.58;95231.94;5074233;28;20901;-61
2020/12/31 08:28:08;;;;;;;6.07;5.40;;;;;;;2.43;82.16;95235.53;5076644;28;20444;-57
2020/12/31 08:30:36;;;;;;;10.77;6.00;;;;;;;2.59;82.02;95238.47;5073103;28;20453;-59
2020/12/31 08:33:03;;;;;;;6.90;5.40;;;;;;;2.72;81.21;95232.44;5074187;28;20182;-58
2020/12/31 08:35:47;;;;;;;4.90;4.30;;;;;;;3.03;80.56;95235.91;5074384;28;20807;-58
2020/12/31 08:38:14;;;;;;;8.17;5.60;;;;;;;3.09;79.99;95231.69;5073915;28;20430;-59
2020/12/31 08:40:45;;;;;;;7.97;5.50;;;;;;;3.07;80.05;95238.88;5074282;28;20430;-57
2020/12/31 08:43:23;;;;;;;6.47;5.17;;;;;;;3.00;80.40;95235.53;5074337;28;20405;-58
2020/12/31 08:45:56;;;;;;;7.07;4.90;;;;;;;3.34;79.18;95235.13;5074396;28;20413;-59
2020/12/31 08:48:24;;;;;;;5.80;5.23;;;;;;;3.49;78.16;95227.06;5073822;28;20404;-57
2020/12/31 08:51:04;;;;;;;6.10;4.97;;;;;;;3.81;77.60;95233.81;5073441;28;20830;-58
2020/12/31 08:53:31;;;;;;;9.20;7.30;;;;;;;3.59;77.68;95235.16;5073559;28;20478;-59
2020/12/31 08:55:57;;;;;;;6.90;6.07;;;;;;;3.65;77.30;95242.94;5073988;28;20470;-58
2020/12/31 08:58:28;;;;;;;7.63;6.00;;;;;;;3.47;78.47;95237.66;5072845;28;20827;-57
2020/12/31 09:00:54;;;;;;;7.60;6.17;;;;;;;3.56;77.97;95236.41;5073763;28;20802;-59
2020/12/31 09:03:20;;;;;;;5.07;4.60;;;;;;;3.71;77.17;95239.50;5073643;28;20450;-57
2020/12/31 09:05:59;;;;;;;5.33;4.83;;;;;;;3.44;77.50;95237.28;5074025;28;20417;-59
2020/12/31 09:08:30;;;;;;;5.80;5.20;;;;;;;3.20;78.76;95236.22;5073185;28;20828;-59
2020/12/31 09:11:14;;;;;;;6.30;5.50;;;;;;;3.49;77.72;95240.84;5073303;28;20470;-59
2020/12/31 09:13:40;;;;;;;6.20;5.60;;;;;;;3.50;78.03;95246.81;5073213;28;20423;-59
2020/12/31 09:16:13;;;;;;;6.00;4.60;;;;;;;3.27;78.99;95236.97;5073339;28;20412;-62
2020/12/31 09:18:40;;;;;;;5.43;4.90;;;;;;;3.26;79.51;95232.81;5055568;28;20596;-61
2020/12/31 09:21:06;;;;;;;6.83;5.47;;;;;;;3.47;78.45;95244.66;5073566;28;20457;-61
2020/12/31 09:23:32;;;;;;;5.20;4.80;;;;;;;3.85;77.13;95241.00;5073514;28;20409;-62
2020/12/31 09:25:58;;;;;;;5.27;4.87;;;;;;;3.67;77.83;95240.94;5073110;28;20426;-61
2020/12/31 09:28:25;;;;;;;5.43;4.90;;;;;;;3.76;77.91;95241.47;5072913;28;20530;-61
2020/12/31 09:30:51;;;;;;;5.90;5.30;;;;;;;4.02;77.07;95239.44;5073230;28;20295;-62
2020/12/31 09:33:19;;;;;;;5.77;5.17;;;;;;;3.87;76.33;95241.56;5073054;28;20937;-61
2020/12/31 09:35:45;;;;;;;5.10;4.60;;;;;;;4.06;76.32;95238.00;5073388;28;20987;-62
2020/12/31 09:38:11;;;;;;;5.90;5.30;;;;;;;4.14;76.39;95239.53;5072611;28;20783;-61
2020/12/31 09:40:37;;;;;;;5.40;4.63;;;;;;;4.29;76.08;95236.63;5073042;28;20952;-62
2020/12/31 09:43:03;;;;;;;5.53;4.53;;;;;;;4.14;75.71;95234.34;5073234;28;20425;-61
2020/12/31 09:45:29;;;;;;;5.73;4.37;;;;;;;4.10;75.41;95226.19;5055496;28;20424;-61
2020/12/31 09:48:00;;;;;;;4.90;4.50;;;;;;;4.18;75.47;95231.09;5054626;28;20644;-55
2020/12/31 09:50:25;;;;;;;4.80;4.30;;;;;;;3.96;75.99;95229.09;5072734;28;20960;-63
2020/12/31 09:52:51;;;;;;;4.13;3.67;;;;;;;4.13;76.49;95224.97;5073271;28;20415;-64
2020/12/31 09:55:16;;;;;;;5.80;4.40;;;;;;;4.06;76.40;95221.63;5072830;28;20202;-55
2020/12/31 09:57:42;;;;;;;5.20;4.67;;;;;;;4.04;77.93;95221.06;5073015;28;20222;-55
2020/12/31 10:00:07;;;;;;;6.50;4.83;;;;;;;3.95;78.56;95214.53;5073289;28;20271;-55
2020/12/31 10:02:33;;;;;;;5.03;4.53;;;;;;;4.08;77.90;95214.41;5072453;28;20177;-55
2020/12/31 10:04:58;;;;;;;4.37;3.97;;;;;;;3.68;79.11;95207.94;5070599;28;20201;-63
2020/12/31 10:07:24;;;;;;;4.73;4.30;;;;;;;3.73;79.45;95208.13;5051255;28;20175;-59
2020/12/31 10:09:49;;;;;;;5.67;4.60;;;;;;;3.88;78.58;95204.19;5069319;28;20198;-63
2020/12/31 10:12:15;;;;;;;4.50;4.10;;;;;;;3.84;78.49;95200.41;5069375;28;20213;-62
2020/12/31 10:14:43;;;;;;;4.70;4.30;;;;;;;4.06;78.00;95199.03;5069562;28;20264;-56
2020/12/31 10:17:09;;;;;;;5.20;4.70;;;;;;;4.33;77.29;95193.59;5067756;28;20186;-57
2020/12/31 10:19:35;;;;;;;6.20;4.87;;;;;;;4.44;76.47;95198.06;5069046;28;20461;-61
2020/12/31 10:22:01;;;;;;;7.27;4.90;;;;;;;4.47;76.01;95195.03;5069062;28;20439;-64
2020/12/31 10:24:26;;;;;;;5.13;3.97;;;;;;;4.66;75.23;95188.81;5069542;28;20427;-61
2020/12/31 10:26:52;;;;;;;5.27;4.77;;;;;;;4.20;75.78;95200.50;5069124;28;20173;-59
2020/12/31 10:29:18;;;;;;;5.83;4.83;;;;;;;4.56;75.03;95194.53;5068351;28;20207;-56
2020/12/31 10:31:49;;;;;;;6.03;5.20;;;;;;;4.55;76.53;95190.34;5068955;28;20895;-64
2020/12/31 10:34:15;;;;;;;4.73;4.23;;;;;;;4.62;75.79;95191.06;5069385;28;20640;-63
2020/12/31 10:36:40;;;;;;;3.70;3.40;;;;;;;4.65;76.13;95195.03;5070172;28;20501;-66
2020/12/31 10:39:06;;;;;;;4.23;3.93;;;;;;;4.55;76.66;95187.72;5072805;28;20548;-64
2020/12/31 10:41:31;;;;;;;4.10;3.80;;;;;;;4.07;78.96;95187.66;5072614;28;20170;-53
2020/12/31 10:43:58;;;;;;;4.83;4.33;;;;;;;3.84;82.74;95186.66;5072285;28;20260;-59
2020/12/31 10:46:25;;;;;;;3.77;3.47;;;;;;;3.63;84.43;95193.00;5071943;28;20538;-62
2020/12/31 10:48:51;;;;;;;4.73;4.20;;;;;;;3.87;85.25;95186.22;5054700;28;20415;-62
2020/12/31 10:51:16;;;;;;;5.23;4.73;;;;;;;3.73;87.11;95184.75;5065637;28;20461;-60
2020/12/31 10:53:42;;;;;;;5.70;5.10;;;;;;;3.53;88.24;95181.50;5065645;28;20182;-64
2020/12/31 10:56:07;;;;;;;6.27;4.80;;;;;;;3.38;89.52;95178.41;5072513;28;20176;-59
2020/12/31 10:58:35;;;;;;;11.23;7.90;;;;;;;3.25;90.88;95176.72;5072435;28;20174;-59
2020/12/31 11:01:00;;;;;;;4.67;4.27;;;;;;;3.31;91.58;95169.88;5071529;28;20274;-66
2020/12/31 11:03:25;;;;;;;8.30;5.23;;;;;;;3.27;91.46;95160.91;5072558;28;20523;-66
2020/12/31 11:05:51;;;;;;;6.03;5.37;;;;;;;3.76;90.48;95156.56;5073053;28;20225;-57
2020/12/31 11:08:16;;;;;;;5.43;4.73;;;;;;;3.79;89.90;95157.91;5075389;28;20181;-66
2020/12/31 11:10:41;;;;;;;5.27;4.13;;;;;;;3.53;90.71;95147.75;5075859;28;20284;-58
2020/12/31 11:13:08;;;;;;;5.40;4.73;;;;;;;3.71;90.77;95140.81;5076096;28;20236;-57
2020/12/31 11:15:33;;;;;;;5.70;5.10;;;;;;;3.68;91.06;95138.63;5076099;28;20177;-58
2020/12/31 11:17:59;;;;;;;9.10;8.20;;;;;;;3.70;91.04;95133.22;5075455;28;20421;-66
2020/12/31 11:20:24;;;;;;;10.17;8.27;;;;;;;4.15;89.21;95135.38;5075305;28;20194;-58
2020/12/31 11:22:50;;;;;;;8.40;5.90;;;;;;;4.40;88.74;95129.31;5075543;28;20191;-58
2020/12/31 11:25:15;;;;;;;10.13;7.40;;;;;;;4.76;87.59;95127.47;5075450;28;20231;-57
2020/12/31 11:27:40;;;;;;;8.70;6.37;;;;;;;4.86;87.44;95124.31;5075175;28;20177;-58
2020/12/31 11:30:06;;;;;;;15.80;12.57;;;;;;;5.05;85.27;95123.28;5075635;28;20195;-66
2020/12/31 11:32:36;;;;;;;16.07;14.03;;;;;;;5.33;84.85;95123.44;5075384;28;20177;-66
2020/12/31 11:35:01;;;;;;;9.70;7.90;;;;;;;5.33;82.59;95120.84;5075353;28;20530;-57
2020/12/31 11:37:27;;;;;;;6.10;5.50;;;;;;;5.22;83.56;95116.41;5074423;28;20452;-67
2020/12/31 11:39:52;;;;;;;17.97;6.40;;;;;;;4.74;86.02;95120.88;5075206;28;20228;-66
2020/12/31 11:42:17;;;;;;;6.93;5.67;;;;;;;4.45;86.01;95113.84;5075655;28;20166;-57
2020/12/31 11:44:43;;;;;;;6.07;5.47;;;;;;;4.57;86.43;95114.69;5075173;28;20177;-58